Time;durP1;ratioP1;P1;durP2;ratioP2;P2;SDS_P1;SDS_P2;PMS_P1;PMS_P2;Temp;Humidity;BMP_temperature;BMP_pressure;BME280_temperature;BME280_humidity;BME280_pressure;Samples;Min_cycle;Max_cycle;Signal;HPM_P1;HPM_P2
2021/03/04 00:01:02;;;;;;;42.97;22.42;;;5.10;92.00;;;;;;6246359;23;20023;-93
2021/03/04 00:04:11;;;;;;;33.63;19.83;;;5.10;92.10;;;;;;6125046;23;20025;-92
2021/03/04 00:06:46;;;;;;;37.70;20.88;;;5.10;92.00;;;;;;6125197;23;20024;-93
2021/03/04 00:09:11;;;;;;;41.38;21.00;;;5.10;92.10;;;;;;6124745;23;20087;-92
2021/03/04 00:11:40;;;;;;;38.58;20.40;;;5.10;92.10;;;;;;6124409;23;20014;-92
2021/03/04 00:14:12;;;;;;;38.60;19.30;;;5.20;92.20;;;;;;6124617;23;20344;-92
2021/03/04 00:16:43;;;;;;;39.35;20.85;;;5.10;92.30;;;;;;6125077;23;20091;-92
2021/03/04 00:19:45;;;;;;;38.92;19.45;;;5.20;92.20;;;;;;6124451;23;20585;-92
2021/03/04 00:22:14;;;;;;;37.47;18.15;;;5.10;92.10;;;;;;6242222;23;20086;-93
2021/03/04 00:24:40;;;;;;;39.30;19.67;;;5.10;92.00;;;;;;6246895;23;20028;-91
2021/03/04 00:27:15;;;;;;;40.75;20.88;;;5.10;92.10;;;;;;6246031;23;20012;-93
2021/03/04 00:29:43;;;;;;;38.67;20.63;;;5.10;92.10;;;;;;6247576;23;20066;-93
2021/03/04 00:32:09;;;;;;;38.88;19.13;;;5.10;92.20;;;;;;6247996;23;20453;-94
2021/03/04 00:34:40;;;;;;;39.95;20.20;;;5.10;92.10;;;;;;6242586;23;20034;-93
2021/03/04 00:37:13;;;;;;;43.47;20.90;;;5.10;92.20;;;;;;6248874;23;20020;-90
2021/03/04 00:39:53;;;;;;;36.47;18.05;;;5.10;92.30;;;;;;6248487;23;20016;-91
2021/03/04 00:42:43;;;;;;;39.60;19.98;;;5.10;92.30;;;;;;6248816;23;20027;-93
2021/03/04 00:45:44;;;;;;;34.17;17.55;;;5.10;92.30;;;;;;6248711;23;20028;-92
2021/03/04 00:48:11;;;;;;;34.85;17.80;;;5.00;92.10;;;;;;6247418;23;20464;-93
2021/03/04 00:50:46;;;;;;;35.17;17.65;;;5.10;92.10;;;;;;6248323;23;20020;-91
2021/03/04 00:53:12;;;;;;;37.08;17.88;;;5.10;92.10;;;;;;6247981;23;20446;-92
2021/03/04 00:55:47;;;;;;;36.45;18.33;;;5.10;92.10;;;;;;6248563;23;20456;-92
2021/03/04 01:04:05;;;;;;;33.60;17.35;;;5.00;92.30;;;;;;6208611;22;20012;-92
2021/03/04 01:06:44;;;;;;;30.08;15.88;;;5.00;92.10;;;;;;6248433;23;20019;-92
2021/03/04 01:09:47;;;;;;;31.35;17.08;;;5.10;92.40;;;;;;6247515;23;20027;-93
2021/03/04 01:12:16;;;;;;;37.13;17.58;;;5.00;92.10;;;;;;6220010;23;20078;31
2021/03/04 01:14:45;;;;;;;31.48;16.52;;;5.00;92.20;;;;;;6217262;23;20329;-92
2021/03/04 01:17:13;;;;;;;36.72;18.13;;;5.00;92.10;;;;;;6217773;23;20064;-92
2021/03/04 01:19:48;;;;;;;31.23;16.45;;;5.00;92.40;;;;;;6222911;23;20104;-91
2021/03/04 01:22:42;;;;;;;32.25;16.67;;;5.00;92.30;;;;;;6224592;23;20028;-92
2021/03/04 01:27:47;;;;;;;29.02;16.17;;;5.00;92.30;;;;;;6216080;23;20021;-92
2021/03/04 01:30:13;;;;;;;31.48;16.83;;;5.00;92.30;;;;;;6217612;23;20110;-92
2021/03/04 01:32:45;;;;;;;33.67;16.67;;;5.00;92.30;;;;;;6217844;23;20024;-92
2021/03/04 01:35:48;;;;;;;28.27;14.48;;;5.00;92.20;;;;;;6217801;23;20019;-92
2021/03/04 01:38:50;;;;;;;31.98;15.75;;;5.00;92.20;;;;;;6217721;23;20091;-93
2021/03/04 01:41:47;;;;;;;33.03;16.73;;;5.00;92.30;;;;;;6217551;23;20044;-91
2021/03/04 01:44:16;;;;;;;28.63;15.07;;;5.00;92.40;;;;;;6217098;23;20024;-91
2021/03/04 01:46:47;;;;;;;28.75;15.10;;;5.00;92.10;;;;;;6217727;23;20017;-92
2021/03/04 01:53:10;;;;;;;32.70;15.65;;;5.00;92.20;;;;;;6217824;23;20437;-90
2021/03/04 01:55:52;;;;;;;28.58;14.98;;;5.00;92.10;;;;;;6168506;23;20135;-93
2021/03/04 01:58:46;;;;;;;28.83;15.20;;;5.00;92.20;;;;;;6217069;23;20028;-92
2021/03/04 02:04:43;;;;;;;30.45;16.00;;;5.00;92.10;;;;;;6217127;23;20019;-91
2021/03/04 02:10:42;;;;;;;31.40;15.93;;;5.00;92.10;;;;;;6217107;23;20064;-93
2021/03/04 02:17:17;;;;;;;29.10;15.63;;;5.00;92.20;;;;;;6217346;23;20035;-93
2021/03/04 02:20:20;;;;;;;35.75;15.95;;;4.90;92.10;;;;;;6217172;23;20047;-92
2021/03/04 02:23:25;;;;;;;30.77;14.57;;;4.90;92.20;;;;;;6217717;23;20373;-91
2021/03/04 02:28:45;;;;;;;30.42;15.70;;;4.90;92.20;;;;;;6244818;22;20028;-92
2021/03/04 02:31:11;;;;;;;27.90;15.63;;;5.00;92.20;;;;;;6250788;23;20027;-92
2021/03/04 02:33:48;;;;;;;31.17;15.82;;;5.00;92.10;;;;;;6247505;23;20113;-92
2021/03/04 02:36:45;;;;;;;31.23;16.55;;;5.00;92.30;;;;;;6247907;23;20091;-92
2021/03/04 02:47:11;;;;;;;31.45;15.55;;;4.90;92.20;;;;;;6156033;23;20017;-93
2021/03/04 02:49:46;;;;;;;27.98;14.43;;;4.90;92.20;;;;;;6157121;23;20124;-91
2021/03/04 02:52:43;;;;;;;32.13;16.20;;;4.90;92.30;;;;;;6157423;23;20017;-92
2021/03/04 02:55:16;;;;;;;30.65;15.52;;;4.90;92.30;;;;;;6157498;23;20021;-92
2021/03/04 02:57:47;;;;;;;31.27;16.05;;;4.90;92.20;;;;;;6157121;23;20022;-92
2021/03/04 03:00:45;;;;;;;29.85;15.88;;;4.90;92.30;;;;;;6156803;23;20025;-91
2021/03/04 03:03:48;;;;;;;32.97;15.98;;;4.90;92.30;;;;;;6157774;23;20013;-93
2021/03/04 03:06:48;;;;;;;30.08;15.65;;;4.90;92.30;;;;;;6157666;23;20017;-93
2021/03/04 03:09:45;;;;;;;33.17;15.85;;;4.90;92.40;;;;;;6157588;23;20330;-94
2021/03/04 03:12:41;;;;;;;28.30;15.13;;;4.90;92.40;;;;;;6157036;23;20017;-94
2021/03/04 03:18:43;;;;;;;28.55;15.75;;;5.00;92.40;;;;;;6216832;23;20016;-92
2021/03/04 03:21:14;;;;;;;28.65;15.23;;;4.90;92.30;;;;;;6215103;23;20023;-95
2021/03/04 03:24:13;;;;;;;29.80;16.15;;;5.00;92.30;;;;;;6217551;23;20153;-92
2021/03/04 03:27:13;;;;;;;31.88;16.10;;;5.00;92.20;;;;;;6216539;23;20024;-92
2021/03/04 03:29:42;;;;;;;32.33;16.25;;;5.00;92.40;;;;;;6215335;23;20020;-92
2021/03/04 03:32:15;;;;;;;32.13;16.40;;;5.00;92.40;;;;;;6216902;23;20013;-91
2021/03/04 03:49:15;;;;;;;34.95;16.83;;;5.00;92.40;;;;;;6175942;23;20214;-91
2021/03/04 03:51:45;;;;;;;31.67;16.73;;;5.00;92.40;;;;;;6186845;23;20013;-92
2021/03/04 03:54:14;;;;;;;32.17;17.27;;;5.00;92.30;;;;;;6186594;23;20021;-94
2021/03/04 03:56:47;;;;;;;34.47;17.05;;;5.00;92.20;;;;;;6186417;23;20047;-93
2021/03/04 03:59:18;;;;;;;33.25;16.83;;;5.00;92.20;;;;;;6186890;23;20092;-92
2021/03/04 04:01:50;;;;;;;32.00;16.67;;;5.00;92.20;;;;;;6186198;23;20017;-93
2021/03/04 04:04:16;;;;;;;32.90;16.73;;;5.00;92.20;;;;;;6216448;23;20024;-92
2021/03/04 04:06:49;;;;;;;32.42;16.35;;;4.90;92.20;;;;;;6219157;23;20051;-93
2021/03/04 04:09:25;;;;;;;;;;;;;;;;;;;;;
2021/03/04 04:11:54;;;;;;;32.05;16.95;;;4.90;92.10;;;;;;6198123;23;20509;-93
2021/03/04 04:15:07;;;;;;;27.90;15.35;;;4.90;92.20;;;;;;6219224;23;20027;-92
2021/03/04 04:17:34;;;;;;;29.65;15.77;;;4.90;92.10;;;;;;6218462;23;20017;-91
2021/03/04 04:20:20;;;;;;;34.72;17.25;;;4.90;92.10;;;;;;6211685;23;20031;-93
2021/03/04 04:22:47;;;;;;;30.02;15.73;;;4.90;92.30;;;;;;6219082;23;20021;-93
2021/03/04 04:25:38;;;;;;;26.40;14.80;;;4.80;92.20;;;;;;6218259;23;20460;-92
2021/03/04 04:28:13;;;;;;;24.80;14.43;;;4.80;92.10;;;;;;6219396;23;20021;-92
2021/03/04 04:30:48;;;;;;;25.77;13.48;;;4.80;92.00;;;;;;6219130;23;20016;-93
2021/03/04 04:33:16;;;;;;;20.88;12.75;;;4.80;92.00;;;;;;6218579;23;20013;-92
2021/03/04 04:35:45;;;;;;;34.65;16.40;;;4.80;91.90;;;;;;6219411;23;20023;-92
2021/03/04 04:38:39;;;;;;;30.00;16.05;;;4.80;92.10;;;;;;6218691;23;20013;-93
2021/03/04 04:41:33;;;;;;;23.92;13.55;;;4.70;92.20;;;;;;6218945;23;20035;-93
2021/03/04 04:44:11;;;;;;;32.28;15.60;;;4.70;92.20;;;;;;6219068;23;20017;-92
2021/03/04 04:46:43;;;;;;;22.25;13.05;;;4.70;92.10;;;;;;6218042;23;20016;-93
2021/03/04 04:49:11;;;;;;;28.85;14.40;;;4.70;92.10;;;;;;6218677;23;20023;-92
2021/03/04 04:51:43;;;;;;;25.05;14.93;;;4.70;92.10;;;;;;6218463;23;20024;-94
2021/03/04 04:54:39;;;;;;;24.77;13.02;;;4.70;92.30;;;;;;6217771;23;20095;-92
2021/03/04 04:57:09;;;;;;;19.70;12.00;;;4.70;92.30;;;;;;6226353;23;20022;-93
2021/03/04 05:00:11;;;;;;;24.45;13.82;;;4.70;92.30;;;;;;6158207;23;20100;-94
2021/03/04 05:02:44;;;;;;;23.83;13.00;;;4.70;92.20;;;;;;6158599;23;20029;-92
2021/03/04 05:05:46;;;;;;;25.25;13.38;;;4.70;92.30;;;;;;6158550;23;20014;-93
2021/03/04 05:08:49;;;;;;;25.38;14.32;;;4.70;92.30;;;;;;6156980;23;20069;-92
2021/03/04 05:14:32;;;;;;;21.90;13.05;;;4.70;92.30;;;;;;6240769;22;20022;-92
2021/03/04 05:17:16;;;;;;;;;;;4.70;92.10;;;;;;6248636;23;20023;-90
2021/03/04 05:19:42;;;;;;;18.33;10.48;;;4.60;91.90;;;;;;6244529;22;20006;-93
2021/03/04 05:22:17;;;;;;;20.98;12.43;;;4.60;92.00;;;;;;6247699;23;20031;-91
2021/03/04 05:24:43;;;;;;;21.70;12.77;;;4.50;92.10;;;;;;6223382;23;20031;-94
2021/03/04 05:28:10;;;;;;;22.42;12.68;;;4.60;92.10;;;;;;6248251;23;20019;-92
2021/03/04 05:30:52;;;;;;;20.08;11.93;;;4.60;92.30;;;;;;6221995;23;20023;-93
2021/03/04 06:08:45;;;;;;;17.00;10.40;;;4.50;92.40;;;;;;6214212;22;20035;-92
2021/03/04 06:11:14;;;;;;;17.02;10.63;;;4.50;92.40;;;;;;6244978;23;20020;-93
2021/03/04 06:13:50;;;;;;;17.75;10.27;;;4.60;92.50;;;;;;6248137;23;20087;-94
2021/03/04 06:29:13;;;;;;;17.23;9.65;;;4.60;92.60;;;;;;6248037;23;20015;-95
2021/03/04 07:28:48;;;;;;;17.63;9.60;;;4.50;92.30;;;;;;6196719;23;20104;-92
2021/03/04 08:01:14;;;;;;;13.98;8.85;;;4.60;92.30;;;;;;6187795;22;20021;-92
2021/03/04 08:03:52;;;;;;;14.75;9.23;;;4.60;92.30;;;;;;6247056;23;20314;-93
2021/03/04 08:06:39;;;;;;;12.48;8.77;;;4.60;92.30;;;;;;6247516;23;20079;-93
2021/03/04 08:09:41;;;;;;;15.57;8.80;;;4.60;92.10;;;;;;6246111;23;20117;-91
2021/03/04 08:22:43;;;;;;;14.18;8.93;;;4.60;92.00;;;;;;6247138;23;20024;-92
2021/03/04 08:29:40;;;;;;;15.13;9.13;;;4.60;92.10;;;;;;6248559;23;20392;-93
2021/03/04 08:32:50;;;;;;;12.10;8.23;;;4.60;92.00;;;;;;6247505;23;20087;-93
2021/03/04 09:26:13;;;;;;;12.27;7.25;;;4.80;92.00;;;;;;6249229;23;20019;-93
2021/03/04 09:32:42;;;;;;;12.85;7.53;;;4.80;92.00;;;;;;6249165;23;20070;-93
2021/03/04 10:14:49;;;;;;;12.98;6.57;;;5.10;91.70;;;;;;6248477;23;20091;-95
2021/03/04 10:17:15;;;;;;;12.07;7.22;;;5.10;91.60;;;;;;6247905;23;20024;-94
2021/03/04 10:23:50;;;;;;;16.77;8.93;;;5.20;91.60;;;;;;6247505;23;20038;-92
2021/03/04 10:44:35;;;;;;;10.23;4.90;;;5.30;91.50;;;;;;6195458;23;20012;-94
2021/03/04 11:00:10;;;;;;;11.85;5.00;;;5.50;91.40;;;;;;6205614;23;20020;-92
2021/03/04 11:02:54;;;;;;;8.82;4.28;;;5.50;91.40;;;;;;6207309;22;20429;-93
2021/03/04 11:05:52;;;;;;;8.75;4.35;;;5.60;91.40;;;;;;6212805;23;20106;-93
2021/03/04 11:08:36;;;;;;;10.13;4.55;;;5.60;91.20;;;;;;6206117;23;20028;-93
2021/03/04 11:11:09;;;;;;;8.70;4.68;;;5.60;91.30;;;;;;6187075;23;20028;-93
2021/03/04 11:14:09;;;;;;;11.70;4.70;;;5.70;91.20;;;;;;6186206;23;20017;-94
2021/03/04 11:16:42;;;;;;;10.80;4.18;;;5.70;91.30;;;;;;6187132;23;20017;-92
2021/03/04 11:31:05;;;;;;;7.90;3.38;;;5.90;91.20;;;;;;6164984;23;20430;-90
2021/03/04 13:52:44;;;;;;;18.83;3.53;;;6.30;85.60;;;;;;6156971;22;20107;-92
2021/03/04 14:23:16;;;;;;;;;;;;;;;;;;;;;
2021/03/04 14:57:47;;;;;;;17.25;3.63;;;6.40;86.10;;;;;;6225191;23;20032;-91
2021/03/04 15:00:45;;;;;;;21.75;4.63;;;6.30;85.40;;;;;;6248139;23;20016;-93
2021/03/04 15:17:37;;;;;;;24.83;3.33;;;6.30;85.50;;;;;;6247553;23;20015;-91
2021/03/04 16:10:11;;;;;;;20.95;2.50;;;6.10;85.30;;;;;;6238605;23;20028;-94
2021/03/04 16:13:07;;;;;;;16.83;3.15;;;6.10;86.30;;;;;;6200553;23;20034;-92
2021/03/04 16:24:35;;;;;;;18.50;2.95;;;6.10;85.10;;;;;;6201834;23;20043;-92
2021/03/04 16:27:48;;;;;;;21.48;2.92;;;6.10;85.10;;;;;;6248512;23;20032;-95
2021/03/04 16:43:13;;;;;;;18.60;3.13;;;6.00;82.90;;;;;;6248501;23;20069;-95
2021/03/04 16:46:06;;;;;;;12.73;2.75;;;5.90;82.70;;;;;;6248792;23;20505;-92
2021/03/04 16:48:43;;;;;;;21.33;3.22;;;5.90;83.70;;;;;;6249185;23;20043;-93
2021/03/04 17:07:41;;;;;;;22.08;3.20;;;5.90;85.50;;;;;;6200807;23;20024;-93
2021/03/04 17:20:14;;;;;;;15.75;2.92;;;5.90;85.60;;;;;;6247510;23;20135;-92
2021/03/04 17:23:40;;;;;;;12.63;2.80;;;5.80;85.00;;;;;;6229695;23;20028;-93
2021/03/04 17:26:11;;;;;;;18.95;3.22;;;5.80;86.20;;;;;;6247630;23;20471;-93
2021/03/04 17:29:14;;;;;;;15.50;2.85;;;5.90;86.90;;;;;;6248996;23;20020;-93
2021/03/04 17:32:45;;;;;;;17.13;3.50;;;5.90;86.80;;;;;;6201421;23;20389;-92
2021/03/04 17:38:52;;;;;;;21.45;3.33;;;5.80;86.50;;;;;;6097300;23;20021;-93
2021/03/04 17:41:48;;;;;;;;;;;5.90;85.40;;;;;;6097629;23;20022;-90
2021/03/04 17:44:14;;;;;;;18.92;3.17;;;5.80;84.90;;;;;;6096893;23;19924;-90
2021/03/04 17:46:49;;;;;;;19.67;2.92;;;5.80;85.30;;;;;;6170825;23;20024;-91
2021/03/04 17:49:15;;;;;;;18.67;2.90;;;5.80;84.40;;;;;;6248068;23;20329;-92
2021/03/04 17:52:11;;;;;;;16.48;2.85;;;5.70;84.50;;;;;;6068648;23;20027;-92
2021/03/04 17:58:11;;;;;;;14.07;2.90;;;5.70;86.10;;;;;;6243015;23;20016;-91
2021/03/04 18:06:10;;;;;;;15.75;3.25;;;5.70;86.40;;;;;;6217638;23;20024;-91
2021/03/04 18:08:42;;;;;;;18.42;3.20;;;5.70;86.20;;;;;;6216926;23;20100;-92
2021/03/04 18:11:40;;;;;;;20.98;3.72;;;5.80;87.00;;;;;;6131359;23;20624;-90
2021/03/04 18:14:51;;;;;;;19.58;3.72;;;5.80;86.90;;;;;;6136327;23;20026;-91
2021/03/04 18:17:51;;;;;;;20.30;3.55;;;5.70;87.20;;;;;;6126396;23;20081;-92
2021/03/04 18:20:45;;;;;;;19.58;2.92;;;5.70;86.60;;;;;;6126295;23;20045;-93
2021/03/04 18:24:09;;;;;;;12.40;3.20;;;5.60;86.50;;;;;;6126044;23;20033;-93
2021/03/04 18:26:46;;;;;;;16.75;3.10;;;5.60;87.60;;;;;;6126783;23;20018;-92
2021/03/04 18:33:12;;;;;;;16.60;3.15;;;5.70;88.40;;;;;;6216770;23;20020;-91
2021/03/04 18:50:16;;;;;;;14.63;4.75;;;5.70;89.60;;;;;;6209126;23;20259;31
2021/03/04 18:52:42;;;;;;;;;;;5.70;90.00;;;;;;6158160;23;20029;-89
2021/03/04 18:59:12;;;;;;;14.05;5.30;;;5.70;90.00;;;;;;6039275;23;20074;-91
2021/03/04 19:16:10;;;;;;;14.68;6.05;;;5.70;89.60;;;;;;6243567;23;20016;-93
2021/03/04 19:28:47;;;;;;;12.05;6.57;;;5.60;89.90;;;;;;6217334;23;20067;-93
2021/03/04 20:10:13;;;;;;;18.90;11.45;;;5.40;90.20;;;;;;6234454;23;20020;-91
2021/03/04 20:12:42;;;;;;;18.85;12.35;;;5.40;90.30;;;;;;6187829;23;20429;-91
2021/03/04 20:15:42;;;;;;;19.05;12.60;;;5.40;90.30;;;;;;6186095;23;20036;-93
2021/03/04 20:30:40;;;;;;;17.92;11.10;;;5.40;90.70;;;;;;6213319;23;20032;-91
2021/03/04 21:09:47;;;;;;;14.48;8.85;;;5.10;90.70;;;;;;6188751;23;20017;-91
2021/03/04 21:12:16;;;;;;;17.90;10.45;;;5.10;90.70;;;;;;6218435;23;20017;-90
2021/03/04 21:30:12;;;;;;;16.95;8.38;;;4.90;90.70;;;;;;6210412;23;20017;-90
2021/03/04 21:32:38;;;;;;;13.07;7.57;;;4.90;90.90;;;;;;6217012;23;20024;-91
2021/03/04 21:35:12;;;;;;;13.07;8.23;;;4.80;90.70;;;;;;6217810;23;20051;-89
2021/03/04 21:38:07;;;;;;;16.02;9.05;;;4.80;90.70;;;;;;6217473;23;20023;-91
2021/03/04 21:40:33;;;;;;;14.60;8.32;;;4.80;90.90;;;;;;6162340;23;20486;-90
2021/03/04 21:43:11;;;;;;;13.82;8.55;;;4.70;90.70;;;;;;6157692;23;20017;-90
2021/03/04 21:45:46;;;;;;;13.13;8.57;;;4.70;91.00;;;;;;6154625;23;20513;-90
2021/03/04 21:48:54;;;;;;;12.27;7.75;;;4.70;91.00;;;;;;6155473;23;20093;-90
2021/03/04 21:51:41;;;;;;;13.00;8.25;;;4.70;91.00;;;;;;6010903;23;20024;-90
2021/03/04 21:54:07;;;;;;;14.52;8.70;;;4.60;91.00;;;;;;6009854;23;20090;-90
2021/03/04 21:56:48;;;;;;;11.25;7.65;;;4.60;91.10;;;;;;6010586;23;20047;-90
2021/03/04 21:59:15;;;;;;;14.40;8.30;;;4.60;91.10;;;;;;6009443;23;20027;-89
2021/03/04 22:01:41;;;;;;;12.10;8.25;;;4.60;91.20;;;;;;6010829;23;20023;-89
2021/03/04 22:04:13;;;;;;;15.55;8.88;;;4.50;91.20;;;;;;6150607;23;20014;-90
2021/03/04 22:10:19;;;;;;;14.65;8.38;;;4.50;91.40;;;;;;6154688;23;20283;-90
2021/03/04 22:13:15;;;;;;;13.75;8.68;;;4.40;91.60;;;;;;6216457;23;20453;-88
2021/03/04 22:15:45;;;;;;;13.50;8.50;;;4.40;91.30;;;;;;6127768;23;20045;-90
2021/03/04 22:18:45;;;;;;;11.85;8.20;;;4.40;91.40;;;;;;6127359;23;20093;-91
2021/03/04 22:21:42;;;;;;;11.80;7.78;;;4.40;91.50;;;;;;6126408;23;20018;-90
2021/03/04 22:24:10;;;;;;;12.20;8.20;;;4.30;91.50;;;;;;6127587;23;20347;-89
2021/03/04 22:26:44;;;;;;;11.27;7.65;;;4.30;91.70;;;;;;6149907;23;20399;-90
2021/03/04 22:29:48;;;;;;;11.90;8.10;;;4.30;91.40;;;;;;6126884;23;20049;-89
2021/03/04 22:32:35;;;;;;;12.27;7.88;;;4.20;91.20;;;;;;6127458;23;20018;-88
2021/03/04 22:35:32;;;;;;;12.02;8.60;;;4.20;91.30;;;;;;6126554;23;20017;-90
2021/03/04 22:38:15;;;;;;;13.82;8.75;;;4.10;91.30;;;;;;6127659;23;20060;-91
2021/03/04 22:40:41;;;;;;;13.45;7.65;;;4.10;91.20;;;;;;6127387;23;20458;-89
2021/03/04 22:43:43;;;;;;;12.07;7.47;;;4.10;91.20;;;;;;6126877;23;20032;-89
2021/03/04 22:46:10;;;;;;;11.43;8.10;;;4.10;91.10;;;;;;6127874;23;20021;-90
2021/03/04 22:48:49;;;;;;;14.45;7.85;;;4.00;91.00;;;;;;6126871;23;20068;-89
2021/03/04 22:51:49;;;;;;;15.45;8.95;;;4.00;91.00;;;;;;6129193;23;20024;-89
2021/03/04 22:58:10;;;;;;;12.75;7.43;;;3.90;91.10;;;;;;6127310;23;20274;-89
2021/03/04 23:00:48;;;;;;;12.95;8.75;;;3.80;90.90;;;;;;6127590;23;20341;-89
2021/03/04 23:03:32;;;;;;;12.52;8.05;;;3.80;91.10;;;;;;6126673;23;20050;-90
2021/03/04 23:06:50;;;;;;;11.90;7.90;;;3.80;91.00;;;;;;6127444;23;20076;-90
2021/03/04 23:12:43;;;;;;;16.08;8.38;;;3.70;90.90;;;;;;6236216;23;20020;-90
2021/03/04 23:15:52;;;;;;;13.35;7.93;;;3.70;90.80;;;;;;6247101;23;20016;-90
2021/03/04 23:21:36;;;;;;;14.65;8.57;;;3.60;90.90;;;;;;6246505;23;20024;-90
2021/03/04 23:24:41;;;;;;;16.67;8.15;;;3.60;91.10;;;;;;6245974;23;20314;-88
2021/03/04 23:27:11;;;;;;;13.55;9.32;;;3.60;91.20;;;;;;6247029;23;20016;-92
2021/03/04 23:29:42;;;;;;;12.32;8.13;;;3.50;91.20;;;;;;6246771;23;20008;-89
2021/03/04 23:32:11;;;;;;;13.35;8.57;;;3.50;91.30;;;;;;6246199;23;20081;-90
2021/03/04 23:41:09;;;;;;;14.85;8.88;;;3.40;91.50;;;;;;6243060;23;20024;-89
2021/03/04 23:46:14;;;;;;;14.13;8.43;;;3.40;91.50;;;;;;6244955;22;20337;-88
2021/03/04 23:48:43;;;;;;;16.73;9.27;;;3.40;91.30;;;;;;6246760;23;20023;-88
2021/03/04 23:51:46;;;;;;;15.73;9.02;;;3.40;91.30;;;;;;6246746;23;20063;-89
2021/03/04 23:54:12;;;;;;;17.27;9.90;;;3.30;91.40;;;;;;6246345;23;20016;-88
2021/03/04 23:56:44;;;;;;;19.00;9.35;;;3.30;91.10;;;;;;6246499;23;20066;-91
2021/03/04 23:59:37;;;;;;;14.65;8.25;;;3.20;91.50;;;;;;6245335;23;20039;-89
